Time;durP1;ratioP1;P1;durP2;ratioP2;P2;SDS_P1;SDS_P2;PMS_P1;PMS_P2;Temp;Humidity;BMP_temperature;BMP_pressure;BME280_temperature;BME280_humidity;BME280_pressure;Samples;Min_cycle;Max_cycle;Signal;HPM_P1;HPM_P2
2023/12/03 03:56:51;;;;;;;5.95;1.65;;;23.60;68.40;;;;;;6208922;23;20411;-66
2023/12/03 03:59:18;;;;;;;3.95;1.08;;;23.50;69.40;;;;;;6209252;23;20024;-66
2023/12/03 04:01:45;;;;;;;2.92;1.05;;;23.50;68.70;;;;;;6210867;23;20023;-67
2023/12/03 04:04:13;;;;;;;4.72;1.23;;;23.50;66.40;;;;;;6208848;23;20008;-66
2023/12/03 04:06:41;;;;;;;5.57;1.48;;;23.50;69.40;;;;;;6209071;23;20032;-66
2023/12/03 04:09:08;;;;;;;11.73;1.50;;;23.50;68.50;;;;;;6210715;23;20412;-65
2023/12/03 04:11:42;;;;;;;5.32;1.02;;;23.50;69.60;;;;;;6184348;23;20025;-67
2023/12/03 04:14:11;;;;;;;5.47;1.27;;;23.40;67.80;;;;;;6210218;23;20044;-68
2023/12/03 04:16:38;;;;;;;4.72;1.33;;;23.40;67.90;;;;;;6210225;23;20004;-70
2023/12/03 04:19:06;;;;;;;6.03;1.13;;;23.30;68.60;;;;;;6210840;23;20478;-70
2023/12/03 04:21:34;;;;;;;5.25;1.20;;;23.30;69.60;;;;;;6212482;23;20016;-71
2023/12/03 04:24:01;;;;;;;3.58;1.20;;;23.20;69.60;;;;;;6210479;23;20007;-74
2023/12/03 04:26:28;;;;;;;5.03;1.63;;;23.20;70.40;;;;;;6212799;23;20016;-71
2023/12/03 04:28:55;;;;;;;6.57;1.40;;;23.30;72.10;;;;;;6211911;23;20005;-73
2023/12/03 04:31:25;;;;;;;5.63;1.40;;;23.30;71.10;;;;;;6185613;23;19996;-67
2023/12/03 04:33:56;;;;;;;5.15;1.27;;;23.30;71.30;;;;;;6210738;23;20011;-66
2023/12/03 04:36:24;;;;;;;6.90;1.27;;;23.30;71.70;;;;;;6236090;23;20005;-66
2023/12/03 04:38:52;;;;;;;4.72;1.42;;;23.10;69.70;;;;;;6212557;23;20062;-68
2023/12/03 04:41:19;;;;;;;6.32;1.85;;;23.10;70.80;;;;;;6210786;23;20013;-68
2023/12/03 04:43:46;;;;;;;6.38;1.95;;;23.10;70.10;;;;;;6212291;23;20054;-65
2023/12/03 04:46:14;;;;;;;11.30;1.70;;;23.00;71.40;;;;;;6211515;23;20685;-67
2023/12/03 04:48:42;;;;;;;7.68;1.50;;;23.20;70.50;;;;;;6210968;23;20008;-67
2023/12/03 04:51:13;;;;;;;12.82;1.65;;;23.20;70.60;;;;;;6211411;23;20001;-67
2023/12/03 04:53:40;;;;;;;6.22;1.55;;;23.10;68.90;;;;;;6211334;23;20004;-68
2023/12/03 04:56:08;;;;;;;6.38;1.80;;;23.00;71.10;;;;;;6212479;23;20071;-67
2023/12/03 04:58:35;;;;;;;8.15;1.63;;;22.90;71.80;;;;;;6213274;23;20420;-67
2023/12/03 05:01:02;;;;;;;7.75;2.03;;;22.80;72.80;;;;;;6212403;23;20404;-67
2023/12/03 05:03:30;;;;;;;13.02;1.95;;;22.80;73.40;;;;;;6212674;23;20055;-68
2023/12/03 05:05:57;;;;;;;8.15;1.75;;;22.90;71.80;;;;;;6213545;23;20011;-67
2023/12/03 05:08:24;;;;;;;8.68;1.42;;;22.80;73.10;;;;;;6213396;23;20008;-67
2023/12/03 05:10:51;;;;;;;8.60;1.75;;;22.80;71.70;;;;;;6213347;23;20004;-67
2023/12/03 05:13:19;;;;;;;6.82;1.77;;;22.80;71.40;;;;;;6211076;23;20015;-66
2023/12/03 05:15:46;;;;;;;5.07;1.30;;;22.70;71.80;;;;;;6213009;23;20083;-67
2023/12/03 05:18:13;;;;;;;6.18;1.70;;;22.70;70.10;;;;;;6211340;23;20000;-70
2023/12/03 05:20:41;;;;;;;9.23;1.65;;;22.50;71.20;;;;;;6211441;23;20036;-68
2023/12/03 05:23:08;;;;;;;8.52;1.65;;;22.50;70.30;;;;;;6212566;23;20043;-68
2023/12/03 05:52:56;;;;;;;10.63;2.28;;;22.30;76.10;;;;;;6206002;23;20724;-68
2023/12/03 05:55:23;;;;;;;11.73;2.10;;;22.30;76.80;;;;;;6211576;23;20016;-69
2023/12/03 05:57:51;;;;;;;15.65;2.30;;;22.30;77.30;;;;;;6211784;23;20025;-71
2023/12/03 06:00:19;;;;;;;11.95;1.80;;;22.40;75.40;;;;;;6211538;23;20084;-67
2023/12/03 06:02:46;;;;;;;10.45;2.42;;;22.50;76.10;;;;;;6212013;23;20019;-67
2023/12/03 06:05:13;;;;;;;12.82;2.70;;;22.60;76.80;;;;;;6212199;23;20003;-66
2023/12/03 06:07:41;;;;;;;10.43;2.67;;;22.70;77.90;;;;;;6210147;23;20015;-68
2023/12/03 06:10:08;;;;;;;10.13;2.20;;;22.80;77.20;;;;;;6211920;23;20004;-68
2023/12/03 06:12:36;;;;;;;16.05;2.40;;;22.80;78.00;;;;;;6210104;23;20009;-67
2023/12/03 06:15:03;;;;;;;13.93;2.58;;;22.80;77.00;;;;;;6210511;23;20007;-69
2023/12/03 06:17:31;;;;;;;11.65;2.08;;;22.70;77.30;;;;;;6211538;23;20071;-68
2023/12/03 06:19:58;;;;;;;15.38;2.63;;;22.70;77.00;;;;;;6211492;23;20003;-71
2023/12/03 06:22:25;;;;;;;9.05;1.90;;;22.70;76.10;;;;;;6185241;23;20103;-69
2023/12/03 06:24:52;;;;;;;6.43;1.52;;;22.60;76.10;;;;;;6212078;23;20008;-72
2023/12/03 06:27:20;;;;;;;6.50;1.60;;;22.50;75.50;;;;;;6210841;23;20012;-69
2023/12/03 06:29:47;;;;;;;4.88;1.23;;;22.50;75.90;;;;;;6209744;23;20028;-69
2023/12/03 06:32:14;;;;;;;6.72;1.20;;;22.50;74.40;;;;;;6211745;23;20019;-68
2023/12/03 06:34:41;;;;;;;3.90;1.40;;;22.40;74.10;;;;;;6211877;23;20767;-68
2023/12/03 06:37:09;;;;;;;3.10;1.00;;;22.30;74.80;;;;;;6211723;23;20019;-69
2023/12/03 06:39:36;;;;;;;4.63;1.25;;;22.30;75.30;;;;;;6207528;23;20359;-68
2023/12/03 06:42:03;;;;;;;3.00;1.20;;;22.30;74.60;;;;;;6211198;23;20036;-67
2023/12/03 06:44:31;;;;;;;4.40;1.23;;;22.30;74.70;;;;;;6209809;23;20019;-66
2023/12/03 06:46:58;;;;;;;5.57;1.20;;;22.30;75.30;;;;;;6212096;23;20435;-67
2023/12/03 06:49:25;;;;;;;6.30;1.10;;;22.30;74.70;;;;;;6211585;23;20084;-69
2023/12/03 06:51:53;;;;;;;5.97;1.20;;;22.30;75.20;;;;;;6211438;23;20005;-66
2023/12/03 15:53:00;;;;;;;6.22;1.27;;;20.20;77.50;;;;;;6207416;23;20071;-66
2023/12/03 15:55:28;;;;;;;4.53;1.50;;;20.20;77.80;;;;;;6214410;23;20024;-67
2023/12/03 15:57:55;;;;;;;5.18;1.02;;;20.20;76.90;;;;;;6213020;23;19997;-66
2023/12/03 16:00:22;;;;;;;4.25;1.60;;;20.20;77.20;;;;;;6213426;23;20011;-66
2023/12/03 16:02:52;;;;;;;4.05;1.00;;;20.20;77.50;;;;;;6214322;23;20024;-66
2023/12/03 16:05:19;;;;;;;6.90;1.40;;;20.20;77.70;;;;;;6212779;23;20012;-67
2023/12/03 16:07:47;;;;;;;4.57;1.35;;;20.20;77.30;;;;;;6214616;23;20011;-67
2023/12/03 16:10:16;;;;;;;6.13;1.02;;;20.20;77.50;;;;;;6214792;23;20375;-66
2023/12/03 16:12:44;;;;;;;7.22;1.20;;;20.20;77.80;;;;;;6214275;23;20029;-67
2023/12/03 16:15:11;;;;;;;5.22;1.63;;;20.20;77.50;;;;;;6214382;23;20055;-67
2023/12/03 16:17:39;;;;;;;5.90;1.05;;;20.20;78.10;;;;;;6214395;23;20005;-67
2023/12/03 16:20:07;;;;;;;4.05;1.10;;;20.20;78.10;;;;;;6214882;23;20004;-66
2023/12/03 16:22:34;;;;;;;6.68;1.13;;;20.10;77.60;;;;;;6213891;23;20008;-67
2023/12/03 16:25:02;;;;;;;6.75;1.30;;;20.00;80.80;;;;;;6214836;23;20404;-67
2023/12/03 16:27:30;;;;;;;6.13;1.17;;;20.00;81.80;;;;;;6212553;23;20522;-67
2023/12/03 16:29:57;;;;;;;5.65;1.20;;;19.80;82.20;;;;;;6212804;23;20327;-67
2023/12/03 16:32:24;;;;;;;5.93;1.20;;;19.80;82.80;;;;;;6214258;23;20028;-67
2023/12/03 16:34:52;;;;;;;5.85;1.23;;;19.70;83.20;;;;;;6214503;23;20021;-67
2023/12/03 16:37:19;;;;;;;4.93;1.30;;;19.70;83.20;;;;;;6214329;23;20036;-67
2023/12/03 16:39:46;;;;;;;6.65;1.35;;;19.70;83.40;;;;;;6214652;23;20421;-67
2023/12/03 16:42:14;;;;;;;5.38;1.20;;;19.70;83.80;;;;;;6214397;23;20087;-67
2023/12/03 16:44:41;;;;;;;7.97;1.20;;;19.70;84.00;;;;;;6214132;23;20001;-67
2023/12/03 16:47:08;;;;;;;7.55;1.55;;;19.70;83.90;;;;;;6214433;23;20382;-67
2023/12/03 16:49:35;;;;;;;4.35;1.17;;;19.60;84.10;;;;;;6214173;23;19997;-67
2023/12/03 16:52:03;;;;;;;3.92;1.27;;;19.60;84.40;;;;;;6214594;23;20009;-67
2023/12/03 16:54:30;;;;;;;4.15;1.20;;;19.60;84.40;;;;;;6214000;23;20055;-67
2023/12/03 16:56:57;;;;;;;3.92;1.20;;;19.60;84.40;;;;;;6214139;23;20004;-67
2023/12/03 16:59:24;;;;;;;7.03;1.35;;;19.50;84.40;;;;;;6214625;23;20016;-67
2023/12/03 17:01:52;;;;;;;6.95;1.45;;;19.50;84.60;;;;;;6214245;23;20398;-67
2023/12/03 17:04:22;;;;;;;9.43;1.52;;;19.50;84.70;;;;;;6214144;23;20015;-67
2023/12/03 17:06:49;;;;;;;4.38;1.10;;;19.60;84.40;;;;;;6214345;23;20000;-66
2023/12/03 17:09:16;;;;;;;6.65;1.40;;;19.50;84.50;;;;;;6214436;23;20004;-67
2023/12/03 17:11:43;;;;;;;6.53;1.30;;;19.60;84.40;;;;;;6212621;23;20011;-67
2023/12/03 17:14:11;;;;;;;3.40;1.00;;;19.60;84.10;;;;;;6214155;23;20012;-67
2023/12/03 17:16:38;;;;;;;9.02;1.40;;;19.60;83.80;;;;;;6213547;23;19997;-67
2023/12/03 17:19:06;;;;;;;3.90;1.20;;;19.70;83.60;;;;;;6214779;23;20432;-67
2023/12/03 17:21:33;;;;;;;5.82;1.40;;;19.70;84.00;;;;;;6213489;23;20032;-67
2023/12/03 17:24:01;;;;;;;7.57;1.20;;;19.60;84.40;;;;;;6214238;23;20059;-67
2023/12/03 17:26:30;;;;;;;4.38;1.17;;;19.70;83.80;;;;;;6213844;23;19996;-67
2023/12/03 17:28:57;;;;;;;3.97;1.20;;;19.60;83.80;;;;;;6215400;23;20016;-67
2023/12/03 17:31:24;;;;;;;9.55;1.60;;;19.60;83.70;;;;;;6215864;23;20011;-67
2023/12/03 17:33:52;;;;;;;4.78;1.00;;;19.70;83.20;;;;;;6215983;23;20032;-67
2023/12/03 17:36:19;;;;;;;4.78;1.30;;;19.70;82.20;;;;;;6216181;23;20012;-67
2023/12/03 17:38:46;;;;;;;4.45;1.30;;;19.70;81.00;;;;;;6214916;23;20465;-66
2023/12/03 17:41:13;;;;;;;5.53;1.10;;;19.70;80.30;;;;;;6215724;23;20001;-67
2023/12/03 17:43:40;;;;;;;6.38;1.33;;;19.70;77.40;;;;;;6214081;23;20458;-66
2023/12/03 17:46:09;;;;;;;5.53;1.20;;;19.70;77.80;;;;;;6215267;23;20032;-66
2023/12/03 17:48:37;;;;;;;3.97;1.15;;;19.70;77.90;;;;;;6215972;23;20004;-67
2023/12/03 20:38:58;;;;;;;5.40;1.30;;;20.00;82.80;;;;;;6207711;23;20027;-63
2023/12/03 20:41:25;;;;;;;3.05;1.20;;;20.10;83.50;;;;;;6213951;23;20076;-63
2023/12/03 20:43:52;;;;;;;4.10;1.42;;;20.20;83.70;;;;;;6213196;23;20028;-64
2023/12/03 20:46:20;;;;;;;9.07;2.03;;;20.20;83.10;;;;;;6213897;23;20011;-64
2023/12/03 20:48:47;;;;;;;4.50;1.63;;;20.30;82.20;;;;;;6214218;23;20047;-64
2023/12/03 20:51:15;;;;;;;4.18;1.23;;;20.30;82.20;;;;;;6214222;23;20297;-65
2023/12/03 20:53:42;;;;;;;6.07;1.50;;;20.30;82.20;;;;;;6213998;23;20024;-65
2023/12/03 20:56:10;;;;;;;6.70;1.42;;;20.40;82.10;;;;;;6212553;23;20085;-65
2023/12/03 20:58:37;;;;;;;3.75;1.40;;;20.40;82.10;;;;;;6213741;23;19997;-66
2023/12/03 21:01:05;;;;;;;7.03;1.65;;;20.40;82.00;;;;;;6214461;23;20005;-65
2023/12/03 21:03:32;;;;;;;10.38;1.73;;;20.40;81.70;;;;;;6213465;23;20019;-63
2023/12/03 21:05:59;;;;;;;6.55;1.77;;;20.40;80.70;;;;;;6215692;23;20007;-64
2023/12/03 21:08:26;;;;;;;6.38;1.60;;;20.40;81.30;;;;;;6214833;23;20050;-63
2023/12/03 21:10:53;;;;;;;9.32;1.30;;;20.50;81.50;;;;;;6215942;23;20067;-64
2023/12/03 21:13:21;;;;;;;7.18;1.50;;;20.40;81.60;;;;;;6215389;23;20080;-64
2023/12/03 21:15:48;;;;;;;7.25;2.20;;;20.50;81.60;;;;;;6214456;23;20001;-64
2023/12/03 21:18:15;;;;;;;10.10;2.35;;;20.50;81.70;;;;;;6189771;23;20005;-64
2023/12/03 21:20:43;;;;;;;10.88;1.60;;;20.50;82.20;;;;;;6216212;23;20023;-64
2023/12/03 21:23:10;;;;;;;4.45;1.33;;;20.50;81.50;;;;;;6215890;23;20066;-64
2023/12/03 21:25:37;;;;;;;9.02;1.48;;;20.50;81.50;;;;;;6216261;23;20392;-64
2023/12/03 21:28:05;;;;;;;6.10;1.52;;;20.50;81.70;;;;;;6215951;23;20080;-64
2023/12/03 21:30:32;;;;;;;6.00;1.60;;;20.50;81.10;;;;;;6215814;23;20003;-64
2023/12/03 21:32:59;;;;;;;5.40;1.40;;;20.50;81.40;;;;;;6215985;23;20012;-64
2023/12/03 21:35:27;;;;;;;3.75;1.63;;;20.50;81.20;;;;;;6215477;23;19997;-64
2023/12/03 21:37:55;;;;;;;4.80;1.48;;;20.50;80.40;;;;;;6216050;23;20015;-64
2023/12/03 21:40:23;;;;;;;6.78;1.45;;;20.50;80.50;;;;;;6215722;23;20091;-64
2023/12/03 21:42:50;;;;;;;4.40;1.63;;;20.50;80.50;;;;;;6215697;23;20009;-63
2023/12/03 21:45:17;;;;;;;5.22;1.70;;;20.50;80.40;;;;;;6215773;23;19997;-63
2023/12/03 21:47:44;;;;;;;7.30;1.38;;;20.40;80.30;;;;;;6215711;23;20440;-64
2023/12/03 21:50:12;;;;;;;8.35;1.60;;;20.50;80.80;;;;;;6215896;23;19997;-64
2023/12/03 21:52:39;;;;;;;7.97;1.70;;;20.50;80.40;;;;;;6215774;23;20009;-64
2023/12/03 21:55:06;;;;;;;5.80;1.45;;;20.50;80.30;;;;;;6214699;23;20328;-64
2023/12/03 21:57:34;;;;;;;7.68;1.33;;;20.50;80.50;;;;;;6215856;23;20005;-64
2023/12/03 22:00:01;;;;;;;6.50;1.58;;;20.50;80.60;;;;;;6213890;23;20001;-68
2023/12/03 22:02:28;;;;;;;4.97;1.40;;;20.50;80.50;;;;;;6215772;23;20436;-67
2023/12/03 22:04:55;;;;;;;4.97;1.23;;;20.50;80.60;;;;;;6216097;23;20033;-67
2023/12/03 22:07:23;;;;;;;12.40;1.65;;;20.50;80.70;;;;;;6215822;23;19997;-67
2023/12/03 22:09:50;;;;;;;8.27;1.75;;;20.50;80.50;;;;;;6215321;23;20066;-68
2023/12/03 22:12:17;;;;;;;5.22;1.67;;;20.50;80.50;;;;;;6215985;23;20059;-67
2023/12/03 22:14:45;;;;;;;7.10;1.63;;;20.50;80.40;;;;;;6215872;23;20499;-67
2023/12/03 22:17:12;;;;;;;6.50;1.48;;;20.50;80.90;;;;;;6214476;23;20001;-67
2023/12/03 22:19:39;;;;;;;6.82;1.58;;;20.50;80.70;;;;;;6215745;23;20020;-67
2023/12/03 22:22:07;;;;;;;4.88;1.60;;;20.50;80.70;;;;;;6215240;23;20023;-67
2023/12/03 22:24:34;;;;;;;6.30;1.60;;;20.50;79.70;;;;;;6213836;23;20004;-67
2023/12/03 22:27:01;;;;;;;6.47;1.85;;;20.50;80.30;;;;;;6215616;23;20305;-67
2023/12/03 22:29:29;;;;;;;4.78;1.45;;;20.50;80.10;;;;;;6215482;23;20016;-67
2023/12/03 22:31:56;;;;;;;6.55;1.60;;;20.50;80.10;;;;;;6215139;23;20009;-67
2023/12/03 22:34:24;;;;;;;3.90;1.20;;;20.50;79.90;;;;;;6215639;23;20047;-67
2023/12/03 22:36:51;;;;;;;5.32;1.48;;;20.60;80.60;;;;;;6214233;23;20001;-67
2023/12/03 22:39:19;;;;;;;3.83;1.10;;;20.60;80.10;;;;;;6215530;23;20051;-67
2023/12/03 22:41:47;;;;;;;5.57;1.60;;;20.60;79.80;;;;;;6215185;23;20055;-67
2023/12/03 22:44:14;;;;;;;5.53;1.30;;;20.60;79.50;;;;;;6215417;23;20005;-67
2023/12/03 22:46:41;;;;;;;6.25;1.50;;;20.60;80.20;;;;;;6164666;23;20000;-67
2023/12/03 22:49:08;;;;;;;6.00;1.50;;;20.70;79.70;;;;;;6214091;23;20367;-67
2023/12/03 22:51:36;;;;;;;6.80;1.35;;;20.70;79.50;;;;;;6215029;23;20009;-67
2023/12/03 22:54:04;;;;;;;6.82;1.42;;;20.60;79.00;;;;;;6215523;23;20332;-67
2023/12/03 22:56:31;;;;;;;4.47;1.40;;;20.70;79.20;;;;;;6215410;23;20008;-67
2023/12/03 22:58:58;;;;;;;6.72;1.48;;;20.60;79.00;;;;;;6215441;23;20058;-67
2023/12/03 23:01:25;;;;;;;6.78;1.50;;;20.70;78.70;;;;;;6215759;23;20012;-67
2023/12/03 23:03:53;;;;;;;7.28;1.50;;;20.70;79.50;;;;;;6215299;23;20019;-67
2023/12/03 23:06:20;;;;;;;4.80;1.50;;;20.70;79.60;;;;;;6238666;23;20087;-67
2023/12/03 23:08:47;;;;;;;4.53;1.20;;;20.70;78.60;;;;;;6215155;23;20027;-67
2023/12/03 23:11:14;;;;;;;3.35;1.35;;;20.60;77.50;;;;;;6215498;23;20004;-67
2023/12/03 23:13:42;;;;;;;4.47;1.33;;;20.70;78.70;;;;;;6215042;23;20001;-67
2023/12/03 23:16:10;;;;;;;7.35;1.80;;;20.70;78.90;;;;;;6213444;23;20001;-67
2023/12/03 23:18:37;;;;;;;2.90;1.10;;;20.60;77.60;;;;;;6215398;23;20009;-67
2023/12/03 23:21:04;;;;;;;6.97;1.40;;;20.70;76.80;;;;;;6213170;23;20005;-67
2023/12/03 23:23:32;;;;;;;5.70;1.50;;;20.70;77.80;;;;;;6213327;23;20008;-67
2023/12/03 23:25:59;;;;;;;5.88;1.75;;;20.70;77.40;;;;;;6215200;23;20305;-67
2023/12/03 23:28:26;;;;;;;7.20;1.48;;;20.80;78.40;;;;;;6215120;23;20019;-67
2023/12/03 23:30:53;;;;;;;4.60;1.67;;;20.80;76.50;;;;;;6215053;23;20035;-67
2023/12/03 23:33:21;;;;;;;7.20;1.88;;;20.80;77.20;;;;;;6215514;23;20000;-67
2023/12/03 23:35:48;;;;;;;8.48;1.67;;;21.00;77.60;;;;;;6214987;23;20008;-67
2023/12/03 23:38:15;;;;;;;7.72;1.30;;;21.10;76.40;;;;;;6213542;23;20008;-67
2023/12/03 23:40:43;;;;;;;4.80;1.40;;;21.30;76.60;;;;;;6213100;23;20013;-67
2023/12/03 23:43:10;;;;;;;6.47;1.40;;;21.40;75.50;;;;;;6215037;23;20044;-67
2023/12/03 23:45:37;;;;;;;3.92;1.45;;;21.50;75.80;;;;;;6214641;23;20058;-67
2023/12/03 23:48:04;;;;;;;3.60;1.25;;;21.50;75.30;;;;;;6214604;23;20001;-67
2023/12/03 23:50:32;;;;;;;9.30;1.67;;;21.50;74.50;;;;;;6215323;23;20372;-67
2023/12/03 23:52:59;;;;;;;4.10;1.40;;;21.60;72.80;;;;;;6214755;23;20334;-67
2023/12/03 23:55:27;;;;;;;7.53;1.50;;;21.70;75.00;;;;;;6214897;23;20022;-68
2023/12/03 23:57:54;;;;;;;4.45;1.48;;;21.70;75.50;;;;;;6212999;23;20082;-67
